Del Norte — WDC2280 — position and weather

sailwx.info

Track history (hours):
 
Tides and Currents Weather Stations Pressure Air Temp Water Temp Dewpoint Dewpoint Depression Visibility Wind Speed Wind Dir Waves Ship Positions

Del Norte

Owner: Golden Gate Bridge,Hwy & Transportation District, Larkspur, CA. More information available from US FCC via Universal Licensing System and Coast Guard Vessel Documentation Center.

Last reported at 2014-Sep-29 17:31 UTC. Time now 2014-Oct-01 08:20 UTC.
Position N 38°01' W 122°22'.

Length 48 m.

Type: High speed craft. MMSI: 366990520.

Date/timePositionNaut miles runAvg speedWind from/ knotsBaromVisibWave heightAir tempDewpointWater temp
2014-Sep-29 17:31N 38°01' W 122°22'8 8.9
2014-Sep-29 16:33N 37°57' W 122°30'  
2014-Sep-23 15:33N 37°56' W 122°30'0 0.4
2014-Sep-23 14:33N 37°56' W 122°30'0 0.5
2014-Sep-23 13:33N 37°57' W 122°31'6 0.5
2014-Sep-23 00:34N 37°52' W 122°25'4 4.3
2014-Sep-22 23:33N 37°56' W 122°28'1 0.1
2014-Sep-22 15:34N 37°56' W 122°29'1 1.0
2014-Sep-22 14:34N 37°57' W 122°30'  
2014-Sep-20 00:34N 37°53' W 122°25'5 4.8
2014-Sep-19 23:33N 37°56' W 122°29'1 1.0
2014-Sep-19 22:33N 37°57' W 122°31'  
Track history (hours):
 
Tides and Currents Weather Stations Pressure Air Temp Water Temp Dewpoint Dewpoint Depression Visibility Wind Speed Wind Dir Waves Ship Positions

Del Norte

Owner: Golden Gate Bridge,Hwy & Transportation District, Larkspur, CA. More information available from US FCC via Universal Licensing System and Coast Guard Vessel Documentation Center.

Last reported at 2014-Sep-29 17:31 UTC. Time now 2014-Oct-01 08:20 UTC.
Position N 38°01' W 122°22'.

Length 48 m.

Type: High speed craft. MMSI: 366990520.

Date/timePositionNaut miles runAvg speedWind from/ knotsBaromVisibWave heightAir tempDewpointWater temp
2014-Sep-29 17:31N 38°01' W 122°22'8 8.9
2014-Sep-29 16:33N 37°57' W 122°30'  
2014-Sep-23 15:33N 37°56' W 122°30'0 0.4
2014-Sep-23 14:33N 37°56' W 122°30'0 0.5
2014-Sep-23 13:33N 37°57' W 122°31'6 0.5
2014-Sep-23 00:34N 37°52' W 122°25'4 4.3
2014-Sep-22 23:33N 37°56' W 122°28'1 0.1
2014-Sep-22 15:34N 37°56' W 122°29'1 1.0
2014-Sep-22 14:34N 37°57' W 122°30'  
2014-Sep-20 00:34N 37°53' W 122°25'5 4.8
2014-Sep-19 23:33N 37°56' W 122°29'1 1.0
2014-Sep-19 22:33N 37°57' W 122°31'  

Dump ship's entire track history